createdAt,value
2023-02-08T00:02:17.468Z,57.20
2023-02-08T00:04:44.683Z,57.04
2023-02-08T00:07:11.658Z,57.02
2023-02-08T00:09:38.933Z,57.15
2023-02-08T00:12:06.239Z,57.33
2023-02-08T00:14:34.770Z,57.44
2023-02-08T00:17:03.250Z,57.07
2023-02-08T00:19:30.438Z,57.11
2023-02-08T00:21:57.415Z,56.97
2023-02-08T00:24:24.576Z,57.36
2023-02-08T00:26:51.564Z,57.36
2023-02-08T00:29:21.169Z,57.06
2023-02-08T00:31:49.525Z,56.96
2023-02-08T00:34:16.827Z,57.32
2023-02-08T00:36:43.730Z,57.11
2023-02-08T00:39:10.926Z,57.08
2023-02-08T00:41:37.909Z,57.16
2023-02-08T00:44:05.454Z,56.93
2023-02-08T00:46:32.456Z,56.92
2023-02-08T00:49:01.160Z,57.59
2023-02-08T00:51:28.141Z,57.54
2023-02-08T00:53:55.649Z,57.65
2023-02-08T00:56:22.928Z,57.62
2023-02-08T00:58:50.201Z,57.51
2023-02-08T01:01:17.820Z,57.41
2023-02-08T01:03:45.085Z,57.48
2023-02-08T01:06:16.238Z,57.33
2023-02-08T01:08:44.011Z,57.24
2023-02-08T01:11:13.224Z,57.21
2023-02-08T01:13:41.219Z,57.55
2023-02-08T01:16:12.275Z,57.42
2023-02-08T01:18:40.611Z,57.55
2023-02-08T01:21:09.530Z,57.11
2023-02-08T01:23:38.132Z,57.31
2023-02-08T01:26:06.308Z,57.77
2023-02-08T01:28:33.346Z,57.35
2023-02-08T01:31:00.776Z,57.32
2023-02-08T01:33:27.998Z,57.58
2023-02-08T01:35:55.808Z,58.00
2023-02-08T01:38:22.871Z,58.08
2023-02-08T01:40:51.453Z,57.96
2023-02-08T01:43:25.202Z,58.22
2023-02-08T01:45:52.911Z,58.26
2023-02-08T01:48:24.194Z,57.67
2023-02-08T01:50:55.025Z,57.52
2023-02-08T01:53:22.768Z,57.32
2023-02-08T01:55:55.007Z,57.67
2023-02-08T01:58:23.314Z,58.16
2023-02-08T02:00:50.601Z,58.20
2023-02-08T02:03:20.517Z,57.67
2023-02-08T02:05:50.026Z,58.51
2023-02-08T02:08:17.052Z,58.06
2023-02-08T02:10:46.763Z,58.24
2023-02-08T02:13:21.531Z,58.50
2023-02-08T02:15:50.289Z,58.40
2023-02-08T02:18:24.393Z,58.10
2023-02-08T02:21:09.095Z,58.32
2023-02-08T02:24:01.840Z,57.90
2023-02-08T02:27:14.374Z,57.96
2023-02-08T02:30:14.845Z,58.47
2023-02-08T02:33:00.220Z,57.89
2023-02-08T02:35:36.602Z,57.99
2023-02-08T02:38:23.187Z,57.79
2023-02-08T02:41:00.381Z,57.93
2023-02-08T02:43:46.091Z,58.36
2023-02-08T02:46:22.376Z,58.13
2023-02-08T02:48:58.882Z,58.70
2023-02-08T02:51:29.085Z,58.76
2023-02-08T02:54:01.032Z,59.19
2023-02-08T02:56:34.157Z,59.01
2023-02-08T02:59:05.078Z,59.18
2023-02-08T03:01:32.613Z,59.03
2023-02-08T03:04:15.822Z,59.06
2023-02-08T03:06:59.614Z,59.14
2023-02-08T03:09:49.972Z,58.78
2023-02-08T03:12:29.868Z,58.79
2023-02-08T03:15:03.734Z,58.82
2023-02-08T03:17:55.114Z,58.51
2023-02-08T03:20:30.294Z,58.57
2023-02-08T03:23:02.799Z,58.57
2023-02-08T03:25:37.537Z,58.83
2023-02-08T03:28:09.421Z,59.09
2023-02-08T03:30:48.443Z,58.97
2023-02-08T03:33:19.816Z,58.95
2023-02-08T03:35:56.501Z,59.12
2023-02-08T03:38:27.384Z,59.06
2023-02-08T03:40:59.853Z,58.76
2023-02-08T03:43:31.728Z,58.92
2023-02-08T03:46:07.008Z,58.72
2023-02-08T03:48:37.477Z,58.61
2023-02-08T03:51:08.030Z,58.72
2023-02-08T03:53:40.450Z,58.75
2023-02-08T03:56:16.953Z,58.85
2023-02-08T03:58:48.252Z,59.09
2023-02-08T04:01:21.327Z,58.81
2023-02-08T04:03:53.960Z,58.86
2023-02-08T04:06:26.076Z,59.02
2023-02-08T04:08:52.906Z,58.98
2023-02-08T04:11:20.233Z,58.93
2023-02-08T04:13:47.314Z,59.27
2023-02-08T04:16:22.336Z,59.07
2023-02-08T04:18:49.322Z,59.09
2023-02-08T04:21:17.194Z,59.01
2023-02-08T04:23:45.423Z,59.09
2023-02-08T04:26:12.824Z,59.40
2023-02-08T04:28:39.853Z,59.52
2023-02-08T04:31:07.205Z,59.46
2023-02-08T04:33:36.617Z,59.21
2023-02-08T04:36:04.352Z,59.32
2023-02-08T04:38:31.346Z,59.22
2023-02-08T04:41:03.345Z,59.06
2023-02-08T04:43:30.240Z,59.08
2023-02-08T04:46:00.126Z,59.10
2023-02-08T04:48:27.185Z,59.15
2023-02-08T04:50:55.632Z,59.31
2023-02-08T04:53:24.963Z,59.12
2023-02-08T04:55:52.669Z,59.25
2023-02-08T04:58:21.470Z,59.51
2023-02-08T05:00:50.642Z,59.49
2023-02-08T05:03:17.542Z,59.22
2023-02-08T05:05:44.742Z,59.21
2023-02-08T05:08:14.157Z,59.51
2023-02-08T05:10:44.904Z,59.74
2023-02-08T05:13:12.070Z,59.56
2023-02-08T05:15:40.752Z,59.63
2023-02-08T05:18:07.689Z,59.70
2023-02-08T05:20:35.098Z,59.48
2023-02-08T05:23:02.083Z,59.86
2023-02-08T05:25:29.407Z,59.97
2023-02-08T05:30:38.554Z,60.12
2023-02-08T05:33:07.112Z,60.12
2023-02-08T05:35:34.355Z,60.33
2023-02-08T05:38:01.522Z,60.19
2023-02-08T05:40:31.905Z,59.88
2023-02-08T05:42:58.877Z,59.92
2023-02-08T05:45:28.302Z,59.84
2023-02-08T05:47:55.248Z,59.59
2023-02-08T05:50:23.838Z,59.81
2023-02-08T05:52:51.052Z,59.79
2023-02-08T05:55:18.438Z,59.97
2023-02-08T05:57:45.276Z,59.93
2023-02-08T06:00:13.787Z,60.03
2023-02-08T06:02:40.722Z,59.73
2023-02-08T06:05:11.042Z,59.79
2023-02-08T06:07:39.345Z,60.01
2023-02-08T06:10:07.380Z,60.02
2023-02-08T06:12:34.393Z,59.61
2023-02-08T06:15:01.870Z,59.06
2023-02-08T06:17:29.966Z,58.57
2023-02-08T06:19:57.074Z,58.31
2023-02-08T06:22:25.134Z,58.20
2023-02-08T06:24:55.855Z,57.98
2023-02-08T06:27:24.421Z,57.98
2023-02-08T06:29:55.359Z,57.24
2023-02-08T06:32:22.339Z,56.89
2023-02-08T06:34:51.391Z,56.61
2023-02-08T06:37:19.214Z,55.97
2023-02-08T06:39:46.605Z,55.41
2023-02-08T06:42:15.085Z,55.24
2023-02-08T06:44:54.139Z,55.46
2023-02-08T06:47:21.787Z,54.51
2023-02-08T06:49:49.131Z,55.02
2023-02-08T06:52:16.264Z,54.78
2023-02-08T06:54:43.454Z,54.21
2023-02-08T06:57:12.896Z,54.62
2023-02-08T06:59:41.660Z,54.11
2023-02-08T07:02:12.525Z,54.32
2023-02-08T07:04:58.014Z,54.04
2023-02-08T07:07:25.622Z,53.85
2023-02-08T07:09:52.623Z,53.37
2023-02-08T07:12:20.206Z,52.23
2023-02-08T07:14:48.967Z,52.60
2023-02-08T07:17:16.217Z,54.31
2023-02-08T07:19:43.164Z,54.80
2023-02-08T07:22:10.602Z,54.71
2023-02-08T07:24:39.864Z,53.92
2023-02-08T07:27:09.040Z,53.67
2023-02-08T07:29:36.620Z,52.79
2023-02-08T07:32:06.609Z,59.92
2023-02-08T07:34:35.281Z,60.98
2023-02-08T07:37:02.861Z,61.57
2023-02-08T07:39:31.367Z,60.89
2023-02-08T07:42:02.892Z,60.86
2023-02-08T07:44:29.861Z,56.78
2023-02-08T07:46:59.143Z,68.26
2023-02-08T07:49:27.473Z,60.38
2023-02-08T07:51:54.638Z,56.57
2023-02-08T07:54:21.813Z,58.57
2023-02-08T07:56:48.936Z,57.97
2023-02-08T07:59:16.607Z,57.69
2023-02-08T08:01:43.843Z,58.09
2023-02-08T08:04:10.986Z,58.26
2023-02-08T08:06:39.610Z,59.52
2023-02-08T08:09:06.797Z,58.98
2023-02-08T08:11:33.948Z,56.70
2023-02-08T08:14:00.894Z,56.72
2023-02-08T08:16:28.092Z,57.22
2023-02-08T08:18:55.098Z,58.31
2023-02-08T08:21:22.368Z,57.72
2023-02-08T08:23:51.134Z,60.25
2023-02-08T08:26:19.548Z,56.46
2023-02-08T08:28:47.118Z,55.52
2023-02-08T08:31:16.764Z,55.89
2023-02-08T08:33:44.316Z,54.49
2023-02-08T08:36:13.424Z,54.88
2023-02-08T08:38:41.094Z,54.49
2023-02-08T08:41:11.526Z,54.53
2023-02-08T08:43:38.933Z,53.67
2023-02-08T08:46:07.073Z,55.37
2023-02-08T08:48:34.811Z,54.07
2023-02-08T08:51:02.152Z,53.30
2023-02-08T08:53:29.273Z,53.63
2023-02-08T08:55:56.636Z,55.01
2023-02-08T08:58:24.935Z,53.95
2023-02-08T09:00:52.289Z,52.66
2023-02-08T09:03:19.352Z,52.82
2023-02-08T09:05:46.859Z,52.29
2023-02-08T09:08:13.885Z,50.58
2023-02-08T09:10:41.630Z,50.43
2023-02-08T09:13:09.529Z,48.84
2023-02-08T09:15:41.182Z,49.59
2023-02-08T09:18:08.300Z,49.54
2023-02-08T09:20:37.857Z,47.82
2023-02-08T09:23:04.848Z,48.20
2023-02-08T09:25:33.368Z,49.23
2023-02-08T09:28:00.368Z,48.15
2023-02-08T09:30:27.647Z,47.94
2023-02-08T09:32:55.941Z,47.93
2023-02-08T09:35:23.057Z,47.96
2023-02-08T09:37:54.494Z,46.43
2023-02-08T09:40:24.465Z,46.70
2023-02-08T09:42:59.036Z,47.13
2023-02-08T09:45:47.966Z,45.16
2023-02-08T09:48:22.804Z,46.82
2023-02-08T09:50:56.042Z,45.88
2023-02-08T09:53:28.404Z,45.47
2023-02-08T09:56:01.452Z,45.76
2023-02-08T09:58:34.621Z,44.85
2023-02-08T10:01:04.527Z,45.80
2023-02-08T10:03:37.855Z,46.21
2023-02-08T10:06:06.903Z,43.78
2023-02-08T10:08:35.795Z,44.64
2023-02-08T10:11:23.204Z,45.48
2023-02-08T10:14:11.024Z,43.64
2023-02-08T10:16:53.896Z,44.12
2023-02-08T10:19:38.565Z,43.42
2023-02-08T10:22:18.866Z,43.19
2023-02-08T10:25:04.222Z,43.09
2023-02-08T10:27:46.254Z,43.12
2023-02-08T10:30:28.287Z,42.41
2023-02-08T10:33:01.269Z,42.80
2023-02-08T10:35:37.080Z,42.50
2023-02-08T10:38:24.976Z,42.09
2023-02-08T10:40:56.670Z,42.68
2023-02-08T10:43:31.171Z,41.27
2023-02-08T10:46:04.632Z,41.02
2023-02-08T10:48:50.628Z,42.22
2023-02-08T10:51:23.404Z,42.74
2023-02-08T10:53:52.121Z,41.98
2023-02-08T10:56:39.949Z,41.53
2023-02-08T10:59:14.199Z,41.63
2023-02-08T11:01:41.430Z,41.62
2023-02-08T11:04:11.341Z,41.81
2023-02-08T11:06:41.882Z,41.46
2023-02-08T11:09:21.001Z,40.89
2023-02-08T11:11:52.582Z,40.32
2023-02-08T11:14:30.382Z,41.50
2023-02-08T11:17:04.932Z,40.65
2023-02-08T11:19:36.611Z,41.08
2023-02-08T11:22:08.259Z,41.13
2023-02-08T11:24:43.532Z,40.27
2023-02-08T11:27:18.246Z,41.52
2023-02-08T11:29:46.359Z,39.39
2023-02-08T11:32:18.083Z,40.60
2023-02-08T11:34:46.050Z,40.42
2023-02-08T11:37:17.914Z,39.71
2023-02-08T11:39:49.905Z,39.27
2023-02-08T11:42:20.666Z,40.21
2023-02-08T11:44:50.517Z,38.92
2023-02-08T11:47:24.397Z,40.30
2023-02-08T11:49:53.832Z,40.50
2023-02-08T11:52:24.948Z,38.67
2023-02-08T11:54:53.308Z,40.17
2023-02-08T11:57:22.929Z,38.10
2023-02-08T11:59:52.488Z,39.18
2023-02-08T12:02:35.849Z,38.89
2023-02-08T12:05:05.107Z,39.20
2023-02-08T12:07:40.675Z,38.26
2023-02-08T12:10:37.476Z,39.12
2023-02-08T12:13:23.884Z,39.45
2023-02-08T12:16:03.930Z,38.66
2023-02-08T12:18:48.315Z,39.22
2023-02-08T12:21:20.469Z,38.26
2023-02-08T12:23:55.873Z,38.19
2023-02-08T12:26:39.722Z,37.26
2023-02-08T12:29:22.417Z,36.76
2023-02-08T12:32:24.688Z,36.97
2023-02-08T12:35:33.009Z,37.34
2023-02-08T12:38:27.341Z,37.89
2023-02-08T12:41:10.421Z,38.31
2023-02-08T12:43:47.192Z,36.81
2023-02-08T12:46:41.078Z,37.37
2023-02-08T12:49:20.487Z,37.13
2023-02-08T12:51:54.774Z,37.75
2023-02-08T12:54:30.729Z,37.97
2023-02-08T12:57:02.862Z,37.28
2023-02-08T12:59:36.160Z,37.98
2023-02-08T13:02:13.458Z,38.02
2023-02-08T13:04:46.307Z,37.81
2023-02-08T13:07:19.091Z,37.36
2023-02-08T13:09:52.188Z,37.33
2023-02-08T13:12:26.333Z,37.11
2023-02-08T13:15:03.382Z,36.94
2023-02-08T13:17:44.844Z,36.24
2023-02-08T13:20:27.404Z,36.11
2023-02-08T13:23:03.205Z,36.39
2023-02-08T13:25:35.799Z,37.25
2023-02-08T13:28:09.051Z,37.54
2023-02-08T13:30:39.995Z,37.48
2023-02-08T13:33:17.756Z,37.61
2023-02-08T13:35:50.146Z,37.25
2023-02-08T13:38:23.106Z,37.05
2023-02-08T13:41:03.808Z,37.25
2023-02-08T13:43:40.187Z,36.45
2023-02-08T13:46:08.190Z,36.79
2023-02-08T13:48:48.555Z,37.37
2023-02-08T13:52:02.315Z,37.13
2023-02-08T13:54:29.695Z,36.91
2023-02-08T13:56:56.910Z,37.04
2023-02-08T13:59:29.661Z,37.11
2023-02-08T14:02:22.719Z,36.11
2023-02-08T14:04:51.899Z,35.82
2023-02-08T14:07:40.692Z,36.46
2023-02-08T14:10:13.927Z,36.39
2023-02-08T14:12:46.200Z,37.30
2023-02-08T14:15:36.712Z,37.85
2023-02-08T14:18:05.016Z,37.64
2023-02-08T14:20:36.534Z,37.87
2023-02-08T14:23:05.459Z,37.41
2023-02-08T14:25:43.520Z,37.35
2023-02-08T14:28:25.891Z,37.48
2023-02-08T14:30:56.896Z,37.78
2023-02-08T14:33:26.998Z,37.82
2023-02-08T14:35:57.032Z,37.98
2023-02-08T14:38:52.652Z,37.64
2023-02-08T14:41:43.042Z,37.08
2023-02-08T14:44:55.534Z,37.51
2023-02-08T14:48:00.657Z,37.48
2023-02-08T14:50:31.213Z,37.82
2023-02-08T14:53:04.674Z,37.68
2023-02-08T14:55:39.344Z,37.59
2023-02-08T14:58:08.569Z,37.93
2023-02-08T15:00:37.897Z,38.19
2023-02-08T15:03:14.435Z,37.92
2023-02-08T15:05:46.349Z,38.45
2023-02-08T15:08:13.579Z,38.21
2023-02-08T15:10:44.826Z,37.95
2023-02-08T15:13:21.039Z,38.80
2023-02-08T15:15:52.440Z,38.29
2023-02-08T15:18:24.195Z,38.50
2023-02-08T15:21:02.599Z,38.98
2023-02-08T15:23:31.971Z,38.35
2023-02-08T15:26:00.796Z,38.26
2023-02-08T15:28:29.562Z,38.83
2023-02-08T15:30:59.437Z,38.25
2023-02-08T15:33:28.489Z,38.39
2023-02-08T15:35:59.877Z,39.00
2023-02-08T15:38:29.604Z,39.58
2023-02-08T15:41:01.836Z,39.36
2023-02-08T15:43:29.718Z,39.20
2023-02-08T15:45:57.655Z,39.91
2023-02-08T15:48:25.608Z,39.54
2023-02-08T15:50:54.853Z,39.75
2023-02-08T15:53:24.867Z,39.60
2023-02-08T15:55:55.107Z,39.97
2023-02-08T15:58:28.890Z,40.15
2023-02-08T16:00:58.396Z,39.78
2023-02-08T16:03:28.013Z,39.50
2023-02-08T16:05:59.227Z,39.74
2023-02-08T16:08:29.489Z,40.47
2023-02-08T16:10:59.731Z,39.98
2023-02-08T16:13:30.584Z,40.12
2023-02-08T16:16:14.300Z,40.31
2023-02-08T16:18:46.137Z,40.12
2023-02-08T16:21:27.090Z,40.04
2023-02-08T16:23:57.022Z,40.45
2023-02-08T16:26:28.654Z,40.54
2023-02-08T16:28:59.316Z,41.05
2023-02-08T16:31:30.732Z,41.32
2023-02-08T16:34:04.295Z,41.35
2023-02-08T16:36:39.729Z,41.49
2023-02-08T16:39:46.801Z,40.91
2023-02-08T16:42:36.820Z,41.54
2023-02-08T16:45:22.610Z,41.75
2023-02-08T16:47:52.049Z,41.60
2023-02-08T16:50:21.313Z,41.40
2023-02-08T16:52:53.901Z,41.73
2023-02-08T16:55:24.665Z,41.76
2023-02-08T16:57:53.838Z,41.50
2023-02-08T17:00:27.692Z,42.41
2023-02-08T17:02:55.815Z,42.45
2023-02-08T17:05:25.206Z,42.14
2023-02-08T17:07:53.715Z,42.15
2023-02-08T17:10:27.557Z,42.47
2023-02-08T17:13:09.753Z,42.59
2023-02-08T17:15:40.684Z,42.55
2023-02-08T17:18:07.710Z,42.86
2023-02-08T17:20:35.672Z,42.72
2023-02-08T17:23:05.645Z,43.01
2023-02-08T17:25:34.791Z,43.04
2023-02-08T17:28:04.811Z,43.29
2023-02-08T17:30:34.673Z,43.04
2023-02-08T17:33:03.770Z,43.28
2023-02-08T17:35:33.298Z,44.00
2023-02-08T17:38:00.513Z,43.51
2023-02-08T17:40:32.614Z,43.59
2023-02-08T17:43:00.249Z,43.92
2023-02-08T17:45:28.796Z,43.87
2023-02-08T17:47:59.253Z,43.92
2023-02-08T17:50:26.629Z,44.01
2023-02-08T17:52:53.833Z,43.90
2023-02-08T17:55:21.222Z,44.17
2023-02-08T17:57:50.532Z,44.05
2023-02-08T18:00:20.452Z,44.21
2023-02-08T18:02:49.726Z,44.73
2023-02-08T18:05:20.065Z,44.58
2023-02-08T18:07:47.135Z,44.71
2023-02-08T18:10:15.222Z,44.79
2023-02-08T18:12:42.855Z,44.71
2023-02-08T18:15:13.795Z,44.89
2023-02-08T18:17:42.523Z,45.08
2023-02-08T18:20:16.736Z,44.90
2023-02-08T18:22:44.401Z,45.07
2023-02-08T18:25:14.010Z,45.19
2023-02-08T18:27:41.068Z,45.18
2023-02-08T18:30:09.893Z,45.22
2023-02-08T18:32:38.561Z,45.01
2023-02-08T18:35:07.470Z,45.23
2023-02-08T18:37:34.819Z,44.91
2023-02-08T18:40:20.109Z,44.47
2023-02-08T18:42:47.553Z,44.56
2023-02-08T18:45:14.601Z,44.23
2023-02-08T18:47:43.280Z,44.56
2023-02-08T18:50:10.522Z,44.12
2023-02-08T18:52:37.845Z,44.09
2023-02-08T18:55:05.594Z,44.12
2023-02-08T18:57:32.778Z,44.17
2023-02-08T18:59:59.622Z,44.10
2023-02-08T19:02:27.348Z,44.23
2023-02-08T19:04:56.034Z,44.05
2023-02-08T19:07:23.352Z,44.00
2023-02-08T19:09:50.529Z,43.74
2023-02-08T19:12:19.034Z,43.86
2023-02-08T19:14:49.171Z,43.87
2023-02-08T19:17:16.436Z,44.17
2023-02-08T19:19:43.299Z,43.73
2023-02-08T19:22:12.188Z,43.83
2023-02-08T19:24:39.253Z,44.02
2023-02-08T19:27:06.557Z,43.89
2023-02-08T19:29:34.537Z,43.69
2023-02-08T19:32:01.719Z,43.72
2023-02-08T19:34:28.768Z,43.83
2023-02-08T19:36:55.986Z,43.74
2023-02-08T19:39:26.055Z,44.12
2023-02-08T19:41:54.234Z,43.72
2023-02-08T19:44:21.841Z,44.31
2023-02-08T19:46:50.491Z,44.10
2023-02-08T19:49:17.657Z,44.19
2023-02-08T19:51:45.490Z,44.19
2023-02-08T19:54:15.315Z,44.02
2023-02-08T19:56:44.136Z,44.41
2023-02-08T19:59:17.938Z,44.23
2023-02-08T20:01:45.204Z,44.83
2023-02-08T20:04:12.906Z,44.99
2023-02-08T20:06:40.459Z,44.66
2023-02-08T20:09:08.541Z,44.93
2023-02-08T20:11:51.288Z,45.09
2023-02-08T20:14:25.535Z,45.24
2023-02-08T20:16:52.848Z,45.06
2023-02-08T20:19:19.869Z,45.09
2023-02-08T20:21:47.234Z,45.20
2023-02-08T20:24:14.788Z,45.04
2023-02-08T20:26:44.737Z,45.14
2023-02-08T20:29:12.875Z,45.74
2023-02-08T20:31:43.586Z,45.64
2023-02-08T20:34:14.099Z,45.77
2023-02-08T20:36:47.608Z,45.84
2023-02-08T20:39:20.667Z,45.77
2023-02-08T20:41:48.245Z,46.03
2023-02-08T20:44:17.104Z,45.77
2023-02-08T20:46:46.633Z,45.82
2023-02-08T20:49:15.227Z,46.36
2023-02-08T20:51:43.530Z,46.44
2023-02-08T20:54:11.143Z,46.67
2023-02-08T20:56:39.136Z,46.96
2023-02-08T20:59:08.536Z,47.09
2023-02-08T21:01:36.227Z,48.05
2023-02-08T21:04:05.856Z,49.08
2023-02-08T21:06:34.752Z,50.74
2023-02-08T21:09:04.854Z,51.33
2023-02-08T21:11:32.900Z,52.00
2023-02-08T21:14:00.769Z,53.52
2023-02-08T21:16:28.414Z,54.05
2023-02-08T21:18:57.102Z,54.57
2023-02-08T21:21:26.376Z,55.20
2023-02-08T21:23:53.741Z,55.14
2023-02-08T21:26:21.608Z,55.35
2023-02-08T21:28:52.757Z,56.03
2023-02-08T21:31:22.190Z,57.00
2023-02-08T21:33:50.351Z,57.03
2023-02-08T21:36:20.207Z,56.88
2023-02-08T21:38:48.762Z,57.04
2023-02-08T21:41:17.348Z,56.50
2023-02-08T21:43:44.608Z,57.08
2023-02-08T21:46:12.221Z,57.29
2023-02-08T21:48:58.347Z,57.41
2023-02-08T21:51:44.767Z,57.57
2023-02-08T21:54:33.847Z,57.84
2023-02-08T21:57:02.383Z,58.34
2023-02-08T21:59:29.776Z,57.53
2023-02-08T22:01:57.194Z,56.64
2023-02-08T22:04:25.418Z,56.03
2023-02-08T22:06:52.590Z,55.14
2023-02-08T22:09:21.146Z,54.25
2023-02-08T22:11:48.525Z,54.05
2023-02-08T22:14:15.926Z,53.86
2023-02-08T22:16:43.296Z,53.18
2023-02-08T22:19:10.201Z,53.00
2023-02-08T22:21:37.460Z,52.80
2023-02-08T22:24:04.674Z,52.33
2023-02-08T22:26:33.583Z,52.54
2023-02-08T22:29:01.422Z,52.29
2023-02-08T22:31:28.665Z,52.17
2023-02-08T22:33:56.573Z,51.92
2023-02-08T22:36:23.751Z,51.93
2023-02-08T22:38:50.749Z,51.52
2023-02-08T22:41:18.777Z,51.52
2023-02-08T22:43:48.215Z,51.63
2023-02-08T22:46:15.637Z,51.10
2023-02-08T22:48:42.649Z,51.18
2023-02-08T22:51:12.375Z,51.17
2023-02-08T22:53:39.555Z,51.18
2023-02-08T22:56:07.626Z,50.93
2023-02-08T22:58:34.987Z,51.05
2023-02-08T23:01:08.665Z,50.65
2023-02-08T23:03:36.208Z,51.13
2023-02-08T23:06:06.203Z,51.14
2023-02-08T23:08:33.456Z,51.25
2023-02-08T23:11:01.946Z,51.10
2023-02-08T23:13:29.505Z,50.76
2023-02-08T23:15:57.191Z,50.94
2023-02-08T23:18:26.255Z,50.60
2023-02-08T23:20:54.554Z,50.45
2023-02-08T23:23:21.872Z,51.07
2023-02-08T23:25:49.110Z,50.59
2023-02-08T23:28:16.216Z,51.02
2023-02-08T23:30:44.463Z,50.90
2023-02-08T23:33:11.771Z,50.57
2023-02-08T23:35:41.787Z,50.82
2023-02-08T23:38:09.083Z,50.74
2023-02-08T23:40:36.287Z,50.91
2023-02-08T23:43:03.458Z,50.92
2023-02-08T23:45:30.960Z,50.54
2023-02-08T23:47:58.097Z,50.95
2023-02-08T23:50:26.326Z,50.86
2023-02-08T23:52:56.630Z,51.30
2023-02-08T23:55:24.678Z,51.45
2023-02-08T23:57:51.602Z,51.14
